createdAt,value
2022-09-30T00:00:00.695Z,7.20
2022-09-30T00:02:30.375Z,8.77
2022-09-30T00:04:58.633Z,8.70
2022-09-30T00:07:26.982Z,7.90
2022-09-30T00:09:55.251Z,8.37
2022-09-30T00:12:23.558Z,8.43
2022-09-30T00:14:51.620Z,7.40
2022-09-30T00:17:19.640Z,7.60
2022-09-30T00:19:49.054Z,8.40
2022-09-30T00:22:17.246Z,9.40
2022-09-30T00:24:46.540Z,10.60
2022-09-30T00:27:18.175Z,9.50
2022-09-30T00:29:46.372Z,9.50
2022-09-30T00:32:14.376Z,10.17
2022-09-30T00:34:42.452Z,9.50
2022-09-30T00:37:15.184Z,8.63
2022-09-30T00:39:43.338Z,9.43
2022-09-30T00:42:14.750Z,9.80
2022-09-30T00:44:54.779Z,9.30
2022-09-30T00:47:32.030Z,9.63
2022-09-30T00:50:03.886Z,8.60
2022-09-30T00:52:34.117Z,9.33
2022-09-30T00:55:03.194Z,9.23
2022-09-30T00:57:31.564Z,8.17
2022-09-30T00:59:59.589Z,8.97
2022-09-30T01:02:27.865Z,10.03
2022-09-30T01:04:57.497Z,9.17
2022-09-30T01:07:26.094Z,8.50
2022-09-30T01:09:55.482Z,9.87
2022-09-30T01:12:24.754Z,9.43
2022-09-30T01:14:54.153Z,9.13
2022-09-30T01:17:26.457Z,9.90
2022-09-30T01:20:35.980Z,9.30
2022-09-30T01:23:18.548Z,8.60
2022-09-30T01:26:15.813Z,8.10
2022-09-30T01:29:12.478Z,8.97
2022-09-30T01:31:49.841Z,8.10
2022-09-30T01:34:25.210Z,7.40
2022-09-30T01:37:03.683Z,8.23
2022-09-30T01:39:39.312Z,8.33
2022-09-30T01:42:13.893Z,7.70
2022-09-30T01:44:49.737Z,7.90
2022-09-30T01:47:26.456Z,7.60
2022-09-30T01:49:59.288Z,8.23
2022-09-30T01:52:31.743Z,8.37
2022-09-30T01:55:03.232Z,10.60
2022-09-30T01:57:34.250Z,8.97
2022-09-30T02:00:07.313Z,9.30
2022-09-30T02:02:41.324Z,10.40
2022-09-30T02:05:13.664Z,10.07
2022-09-30T02:07:45.216Z,10.33
2022-09-30T02:10:17.578Z,9.53
2022-09-30T02:12:49.630Z,9.13
2022-09-30T02:15:22.055Z,8.20
2022-09-30T02:17:53.508Z,8.93
2022-09-30T02:20:24.248Z,9.83
2022-09-30T02:22:54.061Z,10.57
2022-09-30T02:25:26.151Z,9.53
2022-09-30T02:27:58.311Z,8.80
2022-09-30T02:30:27.432Z,9.70
2022-09-30T02:33:00.126Z,10.00
2022-09-30T02:35:30.501Z,8.87
2022-09-30T02:38:03.574Z,9.30
2022-09-30T02:40:37.001Z,9.53
2022-09-30T02:43:05.961Z,9.43
2022-09-30T02:45:39.934Z,9.60
2022-09-30T02:48:17.246Z,10.13
2022-09-30T02:50:48.618Z,8.33
2022-09-30T02:53:22.808Z,8.30
2022-09-30T02:56:14.266Z,9.13
2022-09-30T02:58:43.594Z,9.40
2022-09-30T03:01:12.818Z,10.10
2022-09-30T03:03:44.058Z,11.50
2022-09-30T03:06:12.385Z,9.20
2022-09-30T03:08:40.756Z,10.27
2022-09-30T03:11:09.398Z,11.07
2022-09-30T03:13:57.035Z,9.40
2022-09-30T03:16:36.023Z,9.97
2022-09-30T03:19:21.045Z,10.10
2022-09-30T03:22:04.379Z,8.90
2022-09-30T03:24:46.547Z,9.37
2022-09-30T03:27:20.215Z,8.40
2022-09-30T03:29:53.405Z,10.00
2022-09-30T03:32:31.697Z,9.43
2022-09-30T03:35:06.204Z,10.40
2022-09-30T03:37:42.390Z,9.50
2022-09-30T03:40:18.541Z,8.77
2022-09-30T03:42:50.086Z,8.40
2022-09-30T03:45:22.909Z,9.00
2022-09-30T03:47:54.646Z,7.83
2022-09-30T03:50:26.138Z,7.23
2022-09-30T03:52:54.206Z,9.10
2022-09-30T03:55:24.665Z,7.77
2022-09-30T03:57:54.427Z,7.13
2022-09-30T04:00:22.562Z,9.47
2022-09-30T04:02:52.670Z,7.03
2022-09-30T04:05:25.355Z,9.50
2022-09-30T04:07:53.432Z,8.40
2022-09-30T04:10:21.661Z,8.73
2022-09-30T04:12:49.693Z,10.97
2022-09-30T04:15:17.819Z,9.40
2022-09-30T04:17:46.065Z,8.00
2022-09-30T04:20:14.287Z,7.50
2022-09-30T04:22:43.732Z,7.70
2022-09-30T04:25:12.298Z,5.70
2022-09-30T04:27:40.399Z,7.33
2022-09-30T04:30:09.500Z,6.27
2022-09-30T04:32:37.666Z,4.87
2022-09-30T04:35:06.687Z,5.33
2022-09-30T04:37:34.713Z,5.87
2022-09-30T04:40:04.472Z,6.57
2022-09-30T04:42:33.081Z,5.57
2022-09-30T04:45:01.485Z,6.17
2022-09-30T04:47:30.239Z,5.67
2022-09-30T04:49:58.433Z,4.60
2022-09-30T04:52:26.572Z,5.33
2022-09-30T04:54:55.238Z,5.07
2022-09-30T04:57:24.923Z,5.73
2022-09-30T04:59:53.339Z,6.63
2022-09-30T05:02:21.553Z,4.90
2022-09-30T05:04:49.834Z,5.23
2022-09-30T05:07:18.114Z,5.50
2022-09-30T05:09:46.256Z,5.07
2022-09-30T05:12:15.737Z,5.63
2022-09-30T05:14:45.241Z,6.33
2022-09-30T05:17:13.419Z,4.07
2022-09-30T05:19:41.468Z,5.50
2022-09-30T05:22:09.515Z,4.50
2022-09-30T05:25:04.254Z,5.13
2022-09-30T05:27:32.887Z,6.03
2022-09-30T05:30:02.880Z,5.93
2022-09-30T05:32:44.395Z,5.77
2022-09-30T05:35:33.261Z,5.13
2022-09-30T05:38:01.849Z,5.03
2022-09-30T05:40:31.989Z,5.63
2022-09-30T05:43:00.870Z,3.93
2022-09-30T05:45:30.250Z,4.80
2022-09-30T05:47:58.447Z,5.20
2022-09-30T05:50:26.678Z,5.23
2022-09-30T05:52:54.721Z,5.37
2022-09-30T05:55:23.214Z,6.07
2022-09-30T05:57:52.360Z,9.50
2022-09-30T06:00:20.999Z,8.30
2022-09-30T06:02:53.832Z,8.77
2022-09-30T06:05:22.350Z,8.53
2022-09-30T06:07:51.106Z,8.63
2022-09-30T06:10:19.153Z,7.67
2022-09-30T06:12:47.412Z,6.97
2022-09-30T06:15:15.492Z,7.50
2022-09-30T06:17:43.546Z,8.07
2022-09-30T06:20:12.946Z,7.00
2022-09-30T06:22:43.464Z,7.43
2022-09-30T06:25:12.458Z,8.60
2022-09-30T06:27:40.443Z,8.10
2022-09-30T06:30:09.793Z,9.53
2022-09-30T06:32:37.848Z,10.17
2022-09-30T06:35:06.488Z,9.10
2022-09-30T06:37:36.863Z,8.90
2022-09-30T06:40:05.520Z,7.67
2022-09-30T06:42:34.041Z,7.37
2022-09-30T06:45:02.034Z,10.83
2022-09-30T06:47:33.433Z,8.73
2022-09-30T06:50:03.122Z,10.40
2022-09-30T06:52:31.147Z,8.40
2022-09-30T06:55:00.505Z,8.17
2022-09-30T06:57:28.543Z,9.57
2022-09-30T06:59:57.503Z,9.10
2022-09-30T07:02:25.528Z,8.37
2022-09-30T07:04:53.868Z,9.43
2022-09-30T07:07:22.315Z,9.47
2022-09-30T07:09:50.695Z,6.83
2022-09-30T07:12:20.237Z,7.07
2022-09-30T07:14:48.313Z,7.00
2022-09-30T07:17:16.305Z,8.30
2022-09-30T07:19:44.422Z,7.80
2022-09-30T07:22:32.198Z,7.20
2022-09-30T07:25:01.574Z,8.23
2022-09-30T07:27:33.587Z,7.17
2022-09-30T07:30:12.622Z,7.50
2022-09-30T07:32:44.348Z,6.73
2022-09-30T07:35:18.077Z,7.50
2022-09-30T07:37:46.106Z,7.50
2022-09-30T07:40:15.146Z,6.60
2022-09-30T07:42:45.477Z,5.87
2022-09-30T07:45:16.031Z,5.40
2022-09-30T07:47:44.160Z,5.90
2022-09-30T07:50:15.507Z,6.10
2022-09-30T07:52:43.663Z,6.33
2022-09-30T07:55:11.872Z,5.73
2022-09-30T07:57:39.922Z,4.80
2022-09-30T08:00:37.224Z,3.90
2022-09-30T08:02:58.849Z,4.07
2022-09-30T08:05:27.278Z,2.60
2022-09-30T08:07:55.387Z,2.70
2022-09-30T08:10:23.454Z,3.00
2022-09-30T08:12:54.467Z,3.27
2022-09-30T08:15:27.312Z,3.70
2022-09-30T08:17:55.380Z,3.90
2022-09-30T08:20:24.409Z,2.97
2022-09-30T08:22:54.182Z,3.07
2022-09-30T08:25:22.332Z,8.00
2022-09-30T08:27:50.506Z,8.70
2022-09-30T08:30:18.859Z,3.00
2022-09-30T08:32:48.265Z,3.90
2022-09-30T08:35:16.605Z,3.00
2022-09-30T08:37:44.662Z,3.50
2022-09-30T08:40:19.492Z,2.67
2022-09-30T08:43:10.614Z,2.40
2022-09-30T08:45:45.252Z,2.40
2022-09-30T08:48:23.680Z,2.57
2022-09-30T08:51:02.501Z,2.73
2022-09-30T08:53:32.356Z,2.40
2022-09-30T08:56:02.859Z,3.03
2022-09-30T08:58:32.848Z,3.30
2022-09-30T09:01:05.926Z,3.33
2022-09-30T09:03:35.404Z,2.93
2022-09-30T09:06:13.668Z,3.50
2022-09-30T09:08:54.645Z,3.37
2022-09-30T09:11:38.765Z,2.70
2022-09-30T09:14:14.657Z,1.83
2022-09-30T09:17:00.774Z,1.97
2022-09-30T09:19:37.787Z,1.53
2022-09-30T09:22:05.911Z,1.17
2022-09-30T09:24:39.290Z,0.70
2022-09-30T09:27:19.983Z,1.00
2022-09-30T09:30:00.216Z,1.07
2022-09-30T09:32:29.653Z,0.70
2022-09-30T09:35:18.191Z,0.87
2022-09-30T09:38:12.513Z,0.90
2022-09-30T09:40:57.378Z,0.93
2022-09-30T09:43:33.342Z,1.30
2022-09-30T09:46:05.630Z,1.10
2022-09-30T09:48:36.143Z,1.30
2022-09-30T09:51:14.462Z,1.40
2022-09-30T09:53:49.687Z,1.60
2022-09-30T09:56:19.945Z,0.90
2022-09-30T09:59:13.332Z,0.90
2022-09-30T10:01:43.590Z,0.80
2022-09-30T10:04:16.271Z,0.90
2022-09-30T10:06:49.476Z,1.23
2022-09-30T10:09:26.937Z,2.03
2022-09-30T10:12:19.825Z,1.83
2022-09-30T10:14:52.881Z,1.10
2022-09-30T10:17:22.352Z,1.40
2022-09-30T10:19:52.395Z,1.27
2022-09-30T10:22:26.857Z,1.20
2022-09-30T10:25:11.564Z,0.90
2022-09-30T10:27:49.288Z,0.90
2022-09-30T10:30:32.296Z,1.43
2022-09-30T10:33:03.507Z,1.30
2022-09-30T10:35:32.315Z,0.97
2022-09-30T10:38:02.589Z,0.90
2022-09-30T10:40:31.489Z,1.50
2022-09-30T10:42:59.665Z,0.60
2022-09-30T10:45:32.338Z,1.23
2022-09-30T10:48:02.233Z,1.33
2022-09-30T10:50:30.558Z,1.00
2022-09-30T10:53:02.226Z,1.23
2022-09-30T10:55:34.916Z,0.83
2022-09-30T10:58:22.956Z,1.10
2022-09-30T11:00:55.418Z,1.03
2022-09-30T11:03:26.868Z,1.27
2022-09-30T11:05:55.174Z,1.03
2022-09-30T11:08:29.651Z,0.83
2022-09-30T11:11:05.810Z,1.10
2022-09-30T11:13:38.798Z,1.07
2022-09-30T11:16:15.115Z,1.33
2022-09-30T11:18:46.206Z,0.80
2022-09-30T11:21:17.846Z,0.83
2022-09-30T11:23:49.558Z,1.00
2022-09-30T11:26:27.561Z,1.30
2022-09-30T11:29:07.347Z,2.10
2022-09-30T11:31:41.083Z,1.43
2022-09-30T11:34:29.294Z,2.10
2022-09-30T11:37:02.533Z,1.57
2022-09-30T11:39:44.555Z,1.70
2022-09-30T11:42:17.698Z,1.90
2022-09-30T11:44:46.896Z,2.07
2022-09-30T11:47:38.525Z,1.67
2022-09-30T11:50:24.866Z,2.13
2022-09-30T11:53:00.229Z,2.10
2022-09-30T11:55:42.649Z,1.70
2022-09-30T11:58:39.295Z,2.30
2022-09-30T12:01:08.552Z,1.63
2022-09-30T12:03:40.098Z,1.40
2022-09-30T12:06:13.318Z,1.30
2022-09-30T12:08:49.706Z,1.60
2022-09-30T12:11:22.218Z,1.73
2022-09-30T12:13:53.496Z,1.70
2022-09-30T12:16:23.823Z,2.13
2022-09-30T12:18:56.246Z,2.27
2022-09-30T12:21:28.000Z,1.80
2022-09-30T12:23:58.876Z,2.50
2022-09-30T12:26:30.880Z,2.60
2022-09-30T12:29:19.666Z,2.90
2022-09-30T12:32:02.314Z,2.73
2022-09-30T12:34:40.751Z,2.47
2022-09-30T12:37:23.386Z,2.60
2022-09-30T12:40:38.565Z,2.40
2022-09-30T12:43:23.844Z,2.40
2022-09-30T12:46:10.033Z,5.10
2022-09-30T12:48:41.953Z,2.67
2022-09-30T12:51:11.179Z,2.10
2022-09-30T12:53:40.458Z,2.70
2022-09-30T12:56:11.243Z,2.63
2022-09-30T12:58:44.408Z,2.40
2022-09-30T13:01:15.669Z,2.73
2022-09-30T13:03:51.857Z,2.63
2022-09-30T13:06:21.773Z,2.60
2022-09-30T13:09:07.691Z,2.80
2022-09-30T13:11:43.276Z,2.40
2022-09-30T13:14:25.664Z,2.30
2022-09-30T13:17:24.829Z,2.47
2022-09-30T13:19:54.505Z,2.27
2022-09-30T13:22:58.697Z,2.43
2022-09-30T13:25:27.052Z,2.10
2022-09-30T13:28:25.533Z,2.17
2022-09-30T13:31:13.864Z,1.83
2022-09-30T13:33:44.551Z,2.03
2022-09-30T13:36:31.409Z,2.40
2022-09-30T13:39:21.115Z,2.10
2022-09-30T13:41:57.915Z,2.10
2022-09-30T13:44:32.442Z,1.83
2022-09-30T13:47:09.763Z,2.50
2022-09-30T13:49:42.157Z,1.57
2022-09-30T13:52:18.659Z,1.60
2022-09-30T13:54:48.220Z,1.40
2022-09-30T13:57:24.357Z,1.50
2022-09-30T14:00:08.190Z,1.20
2022-09-30T14:03:05.164Z,1.20
2022-09-30T14:05:46.198Z,1.17
2022-09-30T14:08:36.930Z,1.07
2022-09-30T14:11:15.824Z,1.30
2022-09-30T14:13:51.113Z,1.40
2022-09-30T14:16:49.696Z,1.20
2022-09-30T14:19:44.443Z,1.60
2022-09-30T14:22:13.076Z,1.43
2022-09-30T14:24:41.922Z,1.33
2022-09-30T14:27:36.017Z,1.63
2022-09-30T14:30:10.481Z,1.00
2022-09-30T14:32:46.170Z,1.40
2022-09-30T14:35:18.953Z,1.60
2022-09-30T14:37:49.154Z,1.40
2022-09-30T14:40:20.136Z,1.23
2022-09-30T14:42:50.019Z,1.37
2022-09-30T14:45:23.002Z,1.13
2022-09-30T14:47:53.589Z,1.43
2022-09-30T14:50:26.450Z,1.30
2022-09-30T14:52:57.003Z,1.80
2022-09-30T14:55:28.956Z,3.00
2022-09-30T14:58:18.248Z,2.60
2022-09-30T15:00:46.448Z,3.70
2022-09-30T15:03:14.726Z,2.23
2022-09-30T15:05:44.117Z,3.20
2022-09-30T15:08:12.891Z,1.57
2022-09-30T15:10:49.670Z,2.03
2022-09-30T15:13:18.921Z,1.53
2022-09-30T15:15:47.382Z,3.57
2022-09-30T15:18:31.435Z,4.40
2022-09-30T15:21:06.213Z,3.27
2022-09-30T15:23:37.154Z,3.10
2022-09-30T15:26:07.127Z,2.60
2022-09-30T15:28:36.765Z,2.17
2022-09-30T15:31:05.614Z,2.27
2022-09-30T15:33:34.334Z,2.83
2022-09-30T15:36:06.720Z,3.10
2022-09-30T15:38:35.915Z,2.33
2022-09-30T15:41:06.428Z,4.97
2022-09-30T15:43:37.453Z,2.60
2022-09-30T15:46:29.876Z,2.33
2022-09-30T15:49:00.222Z,2.70
2022-09-30T15:51:37.013Z,2.30
2022-09-30T15:54:31.928Z,1.90
2022-09-30T15:57:04.596Z,2.27
2022-09-30T16:00:01.970Z,2.13
2022-09-30T16:02:31.444Z,2.37
2022-09-30T16:05:00.741Z,2.03
2022-09-30T16:07:31.941Z,2.33
2022-09-30T16:10:00.327Z,1.80
2022-09-30T16:12:31.438Z,2.63
2022-09-30T16:15:01.092Z,2.90
2022-09-30T16:17:30.791Z,2.90
2022-09-30T16:20:00.132Z,2.80
2022-09-30T16:22:38.031Z,2.30
2022-09-30T16:25:14.869Z,2.40
2022-09-30T16:27:42.903Z,3.77
2022-09-30T16:30:14.592Z,3.33
2022-09-30T16:32:44.789Z,2.33
2022-09-30T16:35:18.511Z,2.97
2022-09-30T16:37:48.482Z,3.00
2022-09-30T16:40:20.209Z,3.73
2022-09-30T16:42:48.246Z,4.90
2022-09-30T16:45:16.880Z,4.57
2022-09-30T16:47:45.424Z,4.53
2022-09-30T16:50:24.573Z,3.40
2022-09-30T16:52:53.939Z,3.80
2022-09-30T16:55:21.958Z,3.90
2022-09-30T16:57:50.362Z,4.80
2022-09-30T17:00:18.619Z,3.53
2022-09-30T17:02:47.830Z,3.40
2022-09-30T17:05:18.744Z,3.23
2022-09-30T17:07:47.608Z,2.77
2022-09-30T17:10:21.376Z,3.43
2022-09-30T17:12:50.236Z,3.13
2022-09-30T17:15:19.073Z,3.60
2022-09-30T17:17:47.367Z,3.73
2022-09-30T17:20:16.048Z,3.87
2022-09-30T17:22:44.332Z,6.07
2022-09-30T17:25:12.643Z,5.43
2022-09-30T17:27:42.338Z,44.97
2022-09-30T17:30:11.249Z,10.20
2022-09-30T17:32:39.501Z,7.27
2022-09-30T17:35:08.409Z,6.47
2022-09-30T17:37:37.955Z,5.10
2022-09-30T17:40:22.402Z,4.90
2022-09-30T17:43:11.097Z,4.90
2022-09-30T17:45:40.638Z,10.40
2022-09-30T17:48:09.743Z,9.97
2022-09-30T17:50:38.624Z,7.97
2022-09-30T17:53:07.668Z,7.83
2022-09-30T17:55:35.685Z,7.27
2022-09-30T17:58:05.031Z,5.37
2022-09-30T18:00:33.623Z,6.00
2022-09-30T18:03:02.894Z,10.53
2022-09-30T18:05:31.857Z,13.00
2022-09-30T18:08:00.364Z,5.60
2022-09-30T18:10:29.072Z,9.17
2022-09-30T18:12:57.188Z,6.00
2022-09-30T18:15:27.103Z,6.43
2022-09-30T18:17:55.167Z,6.00
2022-09-30T18:20:25.440Z,5.40
2022-09-30T18:22:53.819Z,4.30
2022-09-30T18:25:22.718Z,5.53
2022-09-30T18:27:52.365Z,6.90
2022-09-30T18:30:21.863Z,5.47
2022-09-30T18:32:52.667Z,4.87
2022-09-30T18:35:24.284Z,5.40
2022-09-30T18:37:53.218Z,5.37
2022-09-30T18:40:22.587Z,5.00
2022-09-30T18:42:55.583Z,5.30
2022-09-30T18:45:24.252Z,5.10
2022-09-30T18:47:56.061Z,6.53
2022-09-30T18:50:24.842Z,6.17
2022-09-30T18:52:53.630Z,5.63
2022-09-30T18:55:22.092Z,5.57
2022-09-30T18:57:50.429Z,6.17
2022-09-30T19:00:20.547Z,5.63
2022-09-30T19:02:48.709Z,6.00
2022-09-30T19:05:18.299Z,5.70
2022-09-30T19:07:46.389Z,4.07
2022-09-30T19:10:14.708Z,3.70
2022-09-30T19:12:44.552Z,5.27
2022-09-30T19:15:16.053Z,5.37
2022-09-30T19:17:44.673Z,4.97
2022-09-30T19:20:14.025Z,5.83
2022-09-30T19:22:43.604Z,6.00
2022-09-30T19:25:12.768Z,6.50
2022-09-30T19:27:42.345Z,5.10
2022-09-30T19:30:13.043Z,6.70
2022-09-30T19:32:41.608Z,6.20
2022-09-30T19:35:11.830Z,5.87
2022-09-30T19:37:57.036Z,6.00
2022-09-30T19:43:05.074Z,5.10
2022-09-30T19:45:33.127Z,4.80
2022-09-30T19:48:01.530Z,5.63
2022-09-30T19:50:30.120Z,5.10
2022-09-30T19:52:58.194Z,4.40
2022-09-30T19:55:26.576Z,5.03
2022-09-30T19:57:56.117Z,4.97
2022-09-30T20:00:24.193Z,4.07
2022-09-30T20:02:52.817Z,5.60
2022-09-30T20:05:22.308Z,5.57
2022-09-30T20:07:51.308Z,4.67
2022-09-30T20:10:19.915Z,4.93
2022-09-30T20:12:47.921Z,6.47
2022-09-30T20:15:34.704Z,6.90
2022-09-30T20:18:03.242Z,5.40
2022-09-30T20:20:38.446Z,6.50
2022-09-30T20:23:06.497Z,6.20
2022-09-30T20:25:35.603Z,5.67
2022-09-30T20:28:04.835Z,6.70
2022-09-30T20:30:35.301Z,6.10
2022-09-30T20:33:03.387Z,5.60
2022-09-30T20:35:31.577Z,5.17
2022-09-30T20:37:59.558Z,5.20
2022-09-30T20:40:27.637Z,4.60
2022-09-30T20:43:03.149Z,5.57
2022-09-30T20:45:31.282Z,5.50
2022-09-30T20:48:00.673Z,4.73
2022-09-30T20:50:38.094Z,4.50
2022-09-30T20:53:09.028Z,5.27
2022-09-30T20:55:38.675Z,5.13
2022-09-30T20:58:07.971Z,5.37
2022-09-30T21:00:38.500Z,4.97
2022-09-30T21:03:09.587Z,5.30
2022-09-30T21:05:37.905Z,6.40
2022-09-30T21:08:07.294Z,5.23
2022-09-30T21:10:36.731Z,5.53
2022-09-30T21:13:10.170Z,6.47
2022-09-30T21:15:38.513Z,5.40
2022-09-30T21:18:08.895Z,5.97
2022-09-30T21:20:37.435Z,5.70
2022-09-30T21:23:05.824Z,6.30
2022-09-30T21:25:33.857Z,6.50
2022-09-30T21:28:02.834Z,6.97
2022-09-30T21:30:30.939Z,5.40
2022-09-30T21:32:58.970Z,6.77
2022-09-30T21:35:28.461Z,6.33
2022-09-30T21:37:56.446Z,5.53
2022-09-30T21:40:24.407Z,6.30
2022-09-30T21:42:52.597Z,5.80
2022-09-30T21:45:25.254Z,5.90
2022-09-30T21:48:01.943Z,6.83
2022-09-30T21:50:36.773Z,6.83
2022-09-30T21:53:05.049Z,6.07
2022-09-30T21:55:33.494Z,6.77
2022-09-30T21:58:01.535Z,5.93
2022-09-30T22:00:29.654Z,6.10
2022-09-30T22:02:58.882Z,6.30
2022-09-30T22:05:26.867Z,5.47
2022-09-30T22:07:59.510Z,5.80
2022-09-30T22:10:27.508Z,6.47
2022-09-30T22:12:55.545Z,8.07
2022-09-30T22:15:23.648Z,6.60
2022-09-30T22:17:51.961Z,5.93
2022-09-30T22:20:20.630Z,6.37
2022-09-30T22:22:48.911Z,5.13
2022-09-30T22:25:20.431Z,6.00
2022-09-30T22:27:48.519Z,6.10
2022-09-30T22:30:16.759Z,6.87
2022-09-30T22:32:44.918Z,6.50
2022-09-30T22:35:30.741Z,7.40
2022-09-30T22:38:16.697Z,7.30
2022-09-30T22:40:46.252Z,7.83
2022-09-30T22:43:14.258Z,8.20
2022-09-30T22:45:43.944Z,8.00
2022-09-30T22:48:12.126Z,9.20
2022-09-30T22:50:40.533Z,8.50
2022-09-30T22:53:08.911Z,7.80
2022-09-30T22:55:38.083Z,6.70
2022-09-30T22:58:07.510Z,6.87
2022-09-30T23:00:35.536Z,7.83
2022-09-30T23:03:03.566Z,6.93
2022-09-30T23:05:31.626Z,5.60
2022-09-30T23:07:59.706Z,7.03
2022-09-30T23:10:27.688Z,7.87
2022-09-30T23:12:55.780Z,7.50
2022-09-30T23:15:27.958Z,7.90
2022-09-30T23:17:56.042Z,8.00
2022-09-30T23:20:24.031Z,6.73
2022-09-30T23:22:52.054Z,7.80
2022-09-30T23:25:20.037Z,7.60
2022-09-30T23:27:49.066Z,8.33
2022-09-30T23:30:17.422Z,7.57
2022-09-30T23:32:46.836Z,7.23
2022-09-30T23:35:15.161Z,7.30
2022-09-30T23:37:43.206Z,7.10
2022-09-30T23:40:11.580Z,7.20
2022-09-30T23:42:39.564Z,6.67
2022-09-30T23:45:09.121Z,7.90
2022-09-30T23:47:37.377Z,8.03
2022-09-30T23:50:07.766Z,8.13
2022-09-30T23:52:35.790Z,7.17
2022-09-30T23:55:03.766Z,7.63
2022-09-30T23:57:31.995Z,6.77
